Accueil
METAR-TAF:

METAR-TAF

Aéroports :

Aéroport de Maastricht-Aix-la-Chapelle

Maastricht Aix-la-Chapelle, Pays-Bas

latitude: 50-55N, longitude: 005-47E, altitude: 114 m

Observation

Le bulletin a été fait il y a 24 minutes, à 23:25 UTC
Vent 4 kt de sud-est
Température 5°C
Humidité 81%
Pression 1017 hPa
Visibilité 10 km ou plus

METAR: EHBK 242325Z AUTO 13004KT 9999 NSC 05/02 Q1017 NOSIG

Heure: 00:49 (23:49 UTC)

Prévision

Le bulletin a été fait il y a 45 minutes, à 23:04 UTC
Prévision valable du 25 à 00 UTC au 26 à 06 UTC
Vent 6 kt de sud/sud-est
Visibilité 10 km ou plus
pas de nuages en-dessous de 1500 mètres et pas de cumulonimbus.
Evoluant progressivement
du 25 à 07 UTC au 25 à 10 UTC
Vent 10 kt de sud/sud-ouest

TAF: EHBK 242304Z 2500/2606 16006KT CAVOK BECMG 2507/2510 21010KT

Observations et prévisions météorologiques de plus de 4000 aéroports (messages METAR et TAF).

Les stations disponibles sont représentées par des disques jaunes et rouges sur la carte.

Passer la souris dessus pour voir le nom de la station.

Cliquer dessus pour voir les observations et prévisions météorologiques.

Pour changer de carte: cliquez sur les boutons verts avec une croix noire pour zoomer, sur le bouton vert avec un tiret pour effectuer un zoom arrière, ou sur les flèches vertes pour les cartes adjacentes.


METAR-TAF: